Monchegorsk, Russia
Current Conditions -  °F | °C
As of 8:30 PM on Saturday 20 Dec 2014 (Local Time) from ULMM Reporting Station
Broken Clouds Broken Clouds  
Wind Chill: 17°   Ceiling: 2600
Heat Index: 23°   Visibility: 6mi
Dew Point: 21°   Wind: 4mph
Humidity: 93%   Direction: NA
Pressure: 29.06"   Gusts: NA
Location:  67.92°N, 32.82°E
Report Text: ULMM 201730Z VRB02MPS 9999 BKN026CB BKN080 M05/M06 Q0984 NOSIGRMK QFE730 31490339
Loading
Personal Weather Stations






























Interactive Weather Map New forecast layout! Learn more

10-Day Weather Forecast

Advertisements
Track Severe Weather on mobile